createdAt,value
2019-05-19T00:00:52.151Z,56.84
2019-05-19T00:01:54.687Z,56.38
2019-05-19T00:02:57.201Z,57.07
2019-05-19T00:04:01.293Z,56.17
2019-05-19T00:05:05.355Z,56.81
2019-05-19T00:06:08.306Z,55.69
2019-05-19T00:07:10.280Z,57.09
2019-05-19T00:08:13.199Z,57.01
2019-05-19T00:09:16.703Z,55.85
2019-05-19T00:10:19.534Z,55.24
2019-05-19T00:11:22.348Z,55.86
2019-05-19T00:12:26.687Z,55.59
2019-05-19T00:13:29.515Z,55.56
2019-05-19T00:14:32.272Z,55.47
2019-05-19T00:15:36.892Z,55.92
2019-05-19T00:16:39.256Z,55.27
2019-05-19T00:17:41.702Z,56.00
2019-05-19T00:18:45.938Z,55.75
2019-05-19T00:19:48.653Z,55.94
2019-05-19T00:20:51.216Z,55.59
2019-05-19T00:21:53.648Z,54.47
2019-05-19T00:22:56.556Z,54.47
2019-05-19T00:23:59.885Z,54.98
2019-05-19T00:25:02.858Z,55.82
2019-05-19T00:26:07.258Z,54.82
2019-05-19T00:27:09.977Z,56.16
2019-05-19T00:28:13.108Z,56.36
2019-05-19T00:29:15.590Z,55.64
2019-05-19T00:30:19.964Z,56.47
2019-05-19T00:31:22.512Z,55.39
2019-05-19T00:32:25.125Z,56.64
2019-05-19T00:33:27.798Z,55.15
2019-05-19T00:34:29.940Z,54.88
2019-05-19T00:35:33.294Z,55.10
2019-05-19T00:36:35.965Z,54.61
2019-05-19T00:37:39.363Z,53.72
2019-05-19T00:38:42.281Z,54.55
2019-05-19T00:39:45.636Z,54.13
2019-05-19T00:40:48.440Z,55.53
2019-05-19T00:41:51.179Z,54.00
2019-05-19T00:42:53.395Z,54.04
2019-05-19T00:43:55.912Z,54.89
2019-05-19T00:44:58.281Z,53.90
2019-05-19T00:46:00.474Z,54.84
2019-05-19T00:47:04.581Z,53.89
2019-05-19T00:48:07.475Z,53.53
2019-05-19T00:49:09.440Z,52.86
2019-05-19T00:50:13.704Z,53.39
2019-05-19T00:51:16.474Z,53.62
2019-05-19T00:52:18.726Z,52.46
2019-05-19T00:53:21.730Z,53.81
2019-05-19T00:54:24.874Z,52.88
2019-05-19T00:55:28.857Z,53.51
2019-05-19T00:56:32.375Z,53.06
2019-05-19T00:57:37.221Z,53.76
2019-05-19T00:58:40.870Z,53.59
2019-05-19T00:59:44.722Z,53.29
2019-05-19T01:00:46.505Z,53.40
2019-05-19T01:01:49.424Z,54.10
2019-05-19T01:02:54.066Z,55.24
2019-05-19T01:03:55.814Z,55.87
2019-05-19T01:04:58.451Z,54.48
2019-05-19T01:06:01.159Z,55.27
2019-05-19T01:07:03.349Z,55.12
2019-05-19T01:08:09.707Z,55.77
2019-05-19T01:09:13.246Z,55.41
2019-05-19T01:10:17.604Z,54.90
2019-05-19T01:11:20.156Z,56.50
2019-05-19T01:12:22.112Z,56.28
2019-05-19T01:13:24.981Z,56.89
2019-05-19T01:14:27.722Z,57.12
2019-05-19T01:15:30.531Z,57.06
2019-05-19T01:16:32.953Z,57.54
2019-05-19T01:17:35.487Z,57.30
2019-05-19T01:18:37.837Z,57.26
2019-05-19T01:19:40.271Z,57.52
2019-05-19T01:20:42.957Z,56.93
2019-05-19T01:21:44.874Z,57.19
2019-05-19T01:22:47.711Z,57.90
2019-05-19T01:23:50.188Z,57.92
2019-05-19T01:24:52.394Z,56.44
2019-05-19T01:25:54.723Z,57.79
2019-05-19T01:26:57.037Z,56.71
2019-05-19T01:27:59.038Z,56.58
2019-05-19T01:29:01.673Z,57.27
2019-05-19T01:30:07.847Z,57.46
2019-05-19T01:31:10.824Z,56.81
2019-05-19T01:32:13.454Z,56.74
2019-05-19T01:33:16.414Z,56.27
2019-05-19T01:34:18.548Z,57.04
2019-05-19T01:35:20.918Z,56.55
2019-05-19T01:36:23.574Z,56.02
2019-05-19T01:37:26.154Z,55.45
2019-05-19T01:38:28.632Z,55.92
2019-05-19T01:39:31.665Z,55.27
2019-05-19T01:40:34.191Z,55.29
2019-05-19T01:41:37.065Z,56.25
2019-05-19T01:42:39.504Z,56.86
2019-05-19T01:43:42.493Z,56.38
2019-05-19T01:44:46.222Z,56.63
2019-05-19T01:45:47.878Z,57.30
2019-05-19T01:46:49.929Z,57.84
2019-05-19T01:47:52.724Z,57.77
2019-05-19T01:48:55.381Z,57.97
2019-05-19T01:50:16.579Z,57.88
2019-05-19T01:51:02.221Z,57.67
2019-05-19T01:52:07.355Z,57.76
2019-05-19T01:53:09.709Z,58.42
2019-05-19T01:54:12.237Z,58.72
2019-05-19T01:55:14.227Z,59.50
2019-05-19T01:56:16.821Z,59.61
2019-05-19T01:57:19.104Z,60.00
2019-05-19T01:58:23.254Z,60.11
2019-05-19T01:59:25.708Z,60.53
2019-05-19T02:00:28.167Z,60.51
2019-05-19T02:01:30.867Z,60.37
2019-05-19T02:02:33.746Z,60.50
2019-05-19T02:03:36.259Z,60.86
2019-05-19T02:04:38.668Z,61.30
2019-05-19T02:05:41.073Z,61.06
2019-05-19T02:06:44.571Z,61.38
2019-05-19T02:07:47.334Z,61.54
2019-05-19T02:08:49.938Z,61.68
2019-05-19T02:09:52.523Z,61.87
2019-05-19T02:10:54.980Z,61.77
2019-05-19T02:11:57.467Z,62.28
2019-05-19T02:12:59.694Z,61.62
2019-05-19T02:14:02.474Z,61.91
2019-05-19T02:15:07.313Z,61.76
2019-05-19T02:16:11.417Z,61.78
2019-05-19T02:17:14.166Z,61.86
2019-05-19T02:18:17.052Z,62.55
2019-05-19T02:19:19.651Z,62.48
2019-05-19T02:20:32.671Z,62.60
2019-05-19T02:21:25.901Z,62.49
2019-05-19T02:22:28.852Z,62.95
2019-05-19T02:23:31.738Z,63.02
2019-05-19T02:24:35.649Z,63.84
2019-05-19T02:25:37.428Z,63.73
2019-05-19T02:26:40.281Z,63.81
2019-05-19T02:27:43.143Z,62.93
2019-05-19T02:28:45.561Z,63.06
2019-05-19T02:29:47.951Z,62.39
2019-05-19T02:30:50.660Z,62.04
2019-05-19T02:31:53.493Z,62.11
2019-05-19T02:32:57.890Z,62.03
2019-05-19T02:34:00.074Z,61.50
2019-05-19T02:35:04.732Z,62.18
2019-05-19T02:36:07.056Z,60.98
2019-05-19T02:37:09.559Z,61.51
2019-05-19T02:38:12.574Z,61.26
2019-05-19T02:39:14.978Z,61.18
2019-05-19T02:40:17.564Z,60.70
2019-05-19T02:41:23.184Z,61.16
2019-05-19T02:42:27.965Z,60.86
2019-05-19T02:43:31.526Z,61.57
2019-05-19T02:44:37.007Z,61.85
2019-05-19T02:45:40.028Z,62.18
2019-05-19T02:46:43.706Z,62.49
2019-05-19T02:47:48.959Z,62.70
2019-05-19T02:48:52.739Z,62.62
2019-05-19T02:49:57.272Z,61.40
2019-05-19T02:51:02.668Z,61.99
2019-05-19T02:52:06.582Z,61.96
2019-05-19T02:53:11.223Z,61.90
2019-05-19T02:54:14.461Z,61.92
2019-05-19T02:55:17.915Z,62.24
2019-05-19T02:56:21.236Z,61.75
2019-05-19T02:57:23.444Z,62.42
2019-05-19T02:58:26.387Z,62.32
2019-05-19T02:59:31.039Z,62.39
2019-05-19T03:00:41.030Z,61.81
2019-05-19T03:02:03.460Z,62.32
2019-05-19T03:03:06.742Z,62.97
2019-05-19T03:04:09.264Z,62.39
2019-05-19T03:05:12.774Z,62.71
2019-05-19T03:06:15.304Z,63.15
2019-05-19T03:07:18.154Z,62.76
2019-05-19T03:08:20.505Z,62.08
2019-05-19T03:09:23.155Z,62.01
2019-05-19T03:10:25.545Z,62.65
2019-05-19T03:11:29.387Z,62.34
2019-05-19T03:12:31.883Z,61.70
2019-05-19T03:13:35.186Z,61.93
2019-05-19T03:14:37.645Z,62.06
2019-05-19T03:15:39.408Z,62.41
2019-05-19T03:16:42.069Z,62.81
2019-05-19T03:17:44.589Z,63.07
2019-05-19T03:18:46.977Z,63.27
2019-05-19T03:19:49.467Z,63.38
2019-05-19T03:21:09.828Z,63.73
2019-05-19T03:21:57.384Z,63.44
2019-05-19T03:23:00.154Z,63.67
2019-05-19T03:24:04.632Z,62.90
2019-05-19T03:25:06.833Z,63.58
2019-05-19T03:26:09.621Z,63.77
2019-05-19T03:27:12.468Z,63.53
2019-05-19T03:28:15.052Z,63.43
2019-05-19T03:29:20.226Z,63.43
2019-05-19T03:30:28.244Z,63.74
2019-05-19T03:31:32.905Z,63.91
2019-05-19T03:32:37.330Z,64.29
2019-05-19T03:33:44.761Z,64.26
2019-05-19T03:34:47.784Z,64.56
2019-05-19T03:35:50.275Z,64.43
2019-05-19T03:36:52.335Z,63.77
2019-05-19T03:37:56.695Z,63.94
2019-05-19T03:38:59.281Z,63.58
2019-05-19T03:40:03.381Z,63.63
2019-05-19T03:41:06.184Z,63.50
2019-05-19T03:42:10.533Z,64.01
2019-05-19T03:43:13.106Z,62.96
2019-05-19T03:44:15.636Z,63.78
2019-05-19T03:45:18.725Z,63.79
2019-05-19T03:46:21.464Z,64.02
2019-05-19T03:47:24.322Z,63.86
2019-05-19T03:48:27.149Z,64.46
2019-05-19T03:49:29.525Z,65.05
2019-05-19T03:50:32.058Z,64.22
2019-05-19T03:51:33.749Z,64.88
2019-05-19T03:52:38.586Z,65.28
2019-05-19T03:53:40.921Z,65.30
2019-05-19T03:54:42.617Z,65.15
2019-05-19T03:55:44.939Z,65.52
2019-05-19T03:56:47.649Z,65.26
2019-05-19T03:57:50.504Z,65.37
2019-05-19T03:58:52.863Z,64.63
2019-05-19T03:59:55.267Z,65.29
2019-05-19T04:00:57.928Z,64.96
2019-05-19T04:02:00.283Z,64.77
2019-05-19T04:03:02.842Z,65.35
2019-05-19T04:04:04.727Z,64.61
2019-05-19T04:05:07.785Z,64.90
2019-05-19T04:06:11.213Z,64.79
2019-05-19T04:07:13.881Z,64.66
2019-05-19T04:08:16.149Z,64.42
2019-05-19T04:09:17.898Z,65.04
2019-05-19T04:10:20.541Z,64.80
2019-05-19T04:11:24.974Z,65.21
2019-05-19T04:12:27.356Z,63.70
2019-05-19T04:13:29.869Z,63.43
2019-05-19T04:14:32.857Z,63.97
2019-05-19T04:15:34.883Z,63.46
2019-05-19T04:16:37.183Z,63.94
2019-05-19T04:17:39.833Z,64.22
2019-05-19T04:18:42.241Z,64.85
2019-05-19T04:19:46.714Z,63.64
2019-05-19T04:20:50.530Z,64.32
2019-05-19T04:21:53.153Z,63.01
2019-05-19T04:22:55.884Z,63.43
2019-05-19T04:23:58.187Z,62.42
2019-05-19T04:24:59.945Z,62.20
2019-05-19T04:26:03.133Z,62.41
2019-05-19T04:27:05.819Z,60.83
2019-05-19T04:28:08.398Z,62.30
2019-05-19T04:29:10.861Z,62.37
2019-05-19T04:30:14.422Z,63.16
2019-05-19T04:31:17.225Z,63.18
2019-05-19T04:32:19.577Z,63.52
2019-05-19T04:33:22.300Z,63.30
2019-05-19T04:34:24.924Z,63.57
2019-05-19T04:35:27.682Z,63.82
2019-05-19T04:36:30.228Z,63.16
2019-05-19T04:37:33.042Z,61.99
2019-05-19T04:38:35.371Z,60.28
2019-05-19T04:39:37.821Z,60.52
2019-05-19T04:40:41.765Z,60.74
2019-05-19T04:41:45.010Z,59.45
2019-05-19T04:42:47.744Z,59.80
2019-05-19T04:43:49.817Z,57.46
2019-05-19T04:44:52.283Z,57.12
2019-05-19T04:45:54.326Z,56.50
2019-05-19T04:46:57.112Z,55.78
2019-05-19T04:47:59.711Z,56.06
2019-05-19T04:49:02.100Z,54.64
2019-05-19T04:50:05.876Z,56.20
2019-05-19T04:51:08.344Z,55.53
2019-05-19T04:52:10.045Z,54.29
2019-05-19T04:53:12.965Z,53.54
2019-05-19T04:54:15.065Z,53.24
2019-05-19T04:55:18.179Z,53.42
2019-05-19T04:56:20.640Z,52.49
2019-05-19T04:57:23.149Z,52.45
2019-05-19T04:58:25.304Z,52.18
2019-05-19T04:59:27.832Z,53.37
2019-05-19T05:00:30.813Z,52.63
2019-05-19T05:01:37.093Z,54.40
2019-05-19T05:02:39.962Z,53.70
2019-05-19T05:03:41.861Z,51.87
2019-05-19T05:04:45.715Z,51.70
2019-05-19T05:05:48.199Z,51.32
2019-05-19T05:06:50.837Z,53.88
2019-05-19T05:07:53.314Z,51.14
2019-05-19T05:08:56.094Z,51.47
2019-05-19T05:09:58.205Z,52.90
2019-05-19T05:11:01.622Z,52.88
2019-05-19T05:12:04.710Z,51.30
2019-05-19T05:13:08.387Z,51.46
2019-05-19T05:14:11.069Z,51.07
2019-05-19T05:15:14.786Z,50.63
2019-05-19T05:16:17.336Z,50.54
2019-05-19T05:17:19.917Z,50.28
2019-05-19T05:18:25.389Z,49.95
2019-05-19T05:19:29.783Z,49.54
2019-05-19T05:20:32.177Z,49.91
2019-05-19T05:21:35.170Z,51.38
2019-05-19T05:22:39.713Z,51.24
2019-05-19T05:23:42.827Z,51.33
2019-05-19T05:24:44.528Z,50.81
2019-05-19T05:25:48.248Z,50.68
2019-05-19T05:26:50.822Z,50.32
2019-05-19T05:27:52.597Z,50.58
2019-05-19T05:28:55.627Z,52.18
2019-05-19T05:29:58.034Z,50.81
2019-05-19T05:31:00.777Z,51.09
2019-05-19T05:32:05.337Z,50.46
2019-05-19T05:33:07.603Z,51.28
2019-05-19T05:34:10.357Z,51.04
2019-05-19T05:35:13.864Z,51.33
2019-05-19T05:36:16.895Z,50.25
2019-05-19T05:37:19.375Z,50.26
2019-05-19T05:38:22.136Z,52.07
2019-05-19T05:39:24.288Z,51.38
2019-05-19T05:40:27.696Z,51.13
2019-05-19T05:41:32.103Z,51.16
2019-05-19T05:42:34.700Z,52.36
2019-05-19T05:43:37.731Z,53.32
2019-05-19T05:44:40.681Z,52.68
2019-05-19T05:45:42.775Z,52.91
2019-05-19T05:46:45.222Z,53.13
2019-05-19T05:47:47.809Z,53.26
2019-05-19T05:48:51.913Z,53.00
2019-05-19T05:49:57.075Z,52.80
2019-05-19T05:50:59.778Z,52.89
2019-05-19T05:52:01.733Z,53.95
2019-05-19T05:53:04.534Z,54.00
2019-05-19T05:54:07.409Z,53.47
2019-05-19T05:55:09.900Z,54.22
2019-05-19T05:56:12.581Z,54.49
2019-05-19T05:57:14.876Z,53.99
2019-05-19T05:58:17.518Z,54.01
2019-05-19T05:59:20.111Z,53.31
2019-05-19T06:00:21.921Z,54.00
2019-05-19T06:01:24.611Z,52.63
2019-05-19T06:02:28.097Z,53.30
2019-05-19T06:03:30.638Z,52.69
2019-05-19T06:04:34.195Z,53.92
2019-05-19T06:05:36.585Z,54.14
2019-05-19T06:06:40.127Z,54.03
2019-05-19T06:07:42.783Z,54.71
2019-05-19T06:08:45.410Z,54.89
2019-05-19T06:09:47.988Z,55.68
2019-05-19T06:10:50.930Z,56.14
2019-05-19T06:11:53.257Z,56.47
2019-05-19T06:12:55.500Z,56.82
2019-05-19T06:13:58.301Z,56.69
2019-05-19T06:15:01.236Z,56.65
2019-05-19T06:16:04.550Z,56.92
2019-05-19T06:17:09.329Z,58.10
2019-05-19T06:18:12.676Z,57.50
2019-05-19T06:19:15.990Z,56.87
2019-05-19T06:20:19.141Z,56.16
2019-05-19T06:21:22.012Z,56.28
2019-05-19T06:22:24.433Z,55.65
2019-05-19T06:23:27.195Z,55.13
2019-05-19T06:24:30.176Z,55.65
2019-05-19T06:25:33.888Z,56.09
2019-05-19T06:26:36.663Z,57.03
2019-05-19T06:27:39.287Z,56.77
2019-05-19T06:28:41.997Z,57.26
2019-05-19T06:29:44.819Z,56.76
2019-05-19T06:30:47.781Z,56.85
2019-05-19T06:31:50.527Z,56.60
2019-05-19T06:32:55.246Z,57.57
2019-05-19T06:33:57.570Z,57.19
2019-05-19T06:35:00.009Z,57.87
2019-05-19T06:36:03.534Z,58.22
2019-05-19T06:37:06.565Z,58.02
2019-05-19T06:38:09.515Z,57.86
2019-05-19T06:39:11.284Z,57.54
2019-05-19T06:40:14.775Z,56.93
2019-05-19T06:41:17.231Z,57.99
2019-05-19T06:42:21.450Z,57.24
2019-05-19T06:43:24.160Z,57.34
2019-05-19T06:44:26.895Z,56.65
2019-05-19T06:45:29.094Z,55.81
2019-05-19T06:46:31.685Z,56.21
2019-05-19T06:47:34.483Z,55.57
2019-05-19T06:48:37.249Z,55.30
2019-05-19T06:49:40.286Z,56.18
2019-05-19T06:50:42.836Z,55.53
2019-05-19T06:51:45.028Z,55.39
2019-05-19T06:52:47.543Z,55.26
2019-05-19T06:53:49.901Z,55.33
2019-05-19T06:54:51.531Z,54.46
2019-05-19T06:55:54.316Z,54.57
2019-05-19T06:56:56.582Z,54.21
2019-05-19T06:57:59.032Z,54.21
2019-05-19T06:59:01.714Z,54.00
2019-05-19T07:00:05.722Z,53.89
2019-05-19T07:01:08.566Z,53.60
2019-05-19T07:02:11.037Z,53.79
2019-05-19T07:03:13.738Z,53.79
2019-05-19T07:04:16.408Z,54.35
2019-05-19T07:05:19.058Z,53.27
2019-05-19T07:06:22.638Z,52.94
2019-05-19T07:07:25.071Z,52.70
2019-05-19T07:08:27.415Z,52.88
2019-05-19T07:09:29.751Z,52.53
2019-05-19T07:10:32.157Z,52.23
2019-05-19T07:11:34.687Z,52.30
2019-05-19T07:12:38.444Z,52.37
2019-05-19T07:13:40.989Z,52.41
2019-05-19T07:14:43.855Z,52.41
2019-05-19T07:15:46.048Z,52.27
2019-05-19T07:16:48.448Z,52.27
2019-05-19T07:17:51.016Z,51.85
2019-05-19T07:18:55.959Z,52.21
2019-05-19T07:19:58.494Z,52.69
2019-05-19T07:21:01.567Z,53.76
2019-05-19T07:22:04.968Z,53.82
2019-05-19T07:23:07.900Z,54.93
2019-05-19T07:24:12.726Z,54.87
2019-05-19T07:25:14.828Z,55.28
2019-05-19T07:26:19.969Z,54.69
2019-05-19T07:27:22.977Z,54.63
2019-05-19T07:28:26.189Z,54.84
2019-05-19T07:29:29.311Z,54.75
2019-05-19T07:30:31.918Z,54.78
2019-05-19T07:31:35.530Z,55.05
2019-05-19T07:32:38.218Z,55.07
2019-05-19T07:33:40.854Z,54.93
2019-05-19T07:34:43.520Z,54.47
2019-05-19T07:35:47.428Z,53.47
2019-05-19T07:36:51.826Z,53.21
2019-05-19T07:37:54.826Z,52.91
2019-05-19T07:38:57.462Z,52.61
2019-05-19T07:39:59.213Z,52.54
2019-05-19T07:41:02.186Z,53.25
2019-05-19T07:42:05.830Z,52.72
2019-05-19T07:43:08.324Z,52.82
2019-05-19T07:44:11.216Z,52.32
2019-05-19T07:45:14.284Z,52.59
2019-05-19T07:46:16.434Z,52.83
2019-05-19T07:47:19.017Z,53.94
2019-05-19T07:48:22.100Z,53.96
2019-05-19T07:49:24.385Z,54.29
2019-05-19T07:50:27.401Z,54.47
2019-05-19T07:51:30.065Z,54.07
2019-05-19T07:52:32.802Z,54.87
2019-05-19T07:53:42.870Z,55.06
2019-05-19T07:54:43.317Z,54.92
2019-05-19T07:55:47.251Z,54.77
2019-05-19T07:56:50.010Z,54.63
2019-05-19T07:57:52.673Z,54.49
2019-05-19T07:58:56.256Z,53.84
2019-05-19T07:59:59.097Z,53.81
2019-05-19T08:01:01.531Z,53.79
2019-05-19T08:02:05.803Z,52.97
2019-05-19T08:03:08.294Z,52.63
2019-05-19T08:04:09.985Z,52.65
2019-05-19T08:05:12.619Z,53.63
2019-05-19T08:06:15.353Z,53.61
2019-05-19T08:07:18.190Z,53.18
2019-05-19T08:08:22.764Z,52.95
2019-05-19T08:09:25.272Z,53.31
2019-05-19T08:10:27.804Z,52.63
2019-05-19T08:11:30.336Z,52.16
2019-05-19T08:12:32.708Z,52.10
2019-05-19T08:13:37.613Z,51.98
2019-05-19T08:14:40.156Z,51.85
2019-05-19T08:15:46.171Z,51.26
2019-05-19T08:16:48.492Z,51.27
2019-05-19T08:17:51.675Z,50.94
2019-05-19T08:18:53.519Z,50.75
2019-05-19T08:19:56.321Z,50.92
2019-05-19T08:20:59.611Z,51.07
2019-05-19T08:22:01.463Z,50.86
2019-05-19T08:23:04.451Z,51.02
2019-05-19T08:24:07.668Z,50.87
2019-05-19T08:25:11.221Z,51.16
2019-05-19T08:26:14.199Z,51.93
2019-05-19T08:27:16.501Z,51.67
2019-05-19T08:28:19.011Z,51.20
2019-05-19T08:29:22.275Z,51.85
2019-05-19T08:30:25.033Z,52.11
2019-05-19T08:31:28.046Z,52.13
2019-05-19T08:32:30.620Z,51.52
2019-05-19T08:33:33.118Z,52.29
2019-05-19T08:34:36.048Z,51.35
2019-05-19T08:35:38.715Z,52.12
2019-05-19T08:36:40.595Z,51.51
2019-05-19T08:37:44.754Z,52.07
2019-05-19T08:38:47.062Z,52.53
2019-05-19T08:39:49.666Z,51.32
2019-05-19T08:40:53.394Z,50.59
2019-05-19T08:41:56.021Z,50.36
2019-05-19T08:42:57.742Z,50.23
2019-05-19T08:44:03.682Z,49.90
2019-05-19T08:45:07.944Z,49.87
2019-05-19T08:46:12.840Z,49.75
2019-05-19T08:47:15.638Z,49.57
2019-05-19T08:48:18.591Z,50.77
2019-05-19T08:49:21.598Z,51.13
2019-05-19T08:50:24.369Z,51.55
2019-05-19T08:51:27.105Z,50.57
2019-05-19T08:52:29.512Z,51.23
2019-05-19T08:53:33.907Z,50.29
2019-05-19T08:54:39.176Z,50.55
2019-05-19T08:55:41.981Z,50.62
2019-05-19T08:56:46.621Z,50.56
2019-05-19T08:57:49.419Z,50.86
2019-05-19T08:58:51.816Z,50.37
2019-05-19T08:59:54.535Z,50.95
2019-05-19T09:00:56.550Z,51.11
2019-05-19T09:01:59.386Z,51.18
2019-05-19T09:03:03.033Z,50.46
2019-05-19T09:04:05.926Z,49.81
2019-05-19T09:05:09.052Z,51.14
2019-05-19T09:06:12.269Z,50.43
2019-05-19T09:07:14.604Z,49.77
2019-05-19T09:08:17.681Z,50.27
2019-05-19T09:09:22.020Z,49.79
2019-05-19T09:10:25.670Z,49.72
2019-05-19T09:11:28.481Z,49.68
2019-05-19T09:12:31.188Z,50.20
2019-05-19T09:13:34.557Z,50.42
2019-05-19T09:14:38.951Z,49.64
2019-05-19T09:15:42.671Z,49.84
2019-05-19T09:16:46.365Z,49.79
2019-05-19T09:17:49.767Z,49.34
2019-05-19T09:18:51.521Z,49.05
2019-05-19T09:19:55.169Z,48.96
2019-05-19T09:20:57.500Z,48.99
2019-05-19T09:21:59.295Z,50.79
2019-05-19T09:23:02.963Z,49.66
2019-05-19T09:24:06.177Z,51.30
2019-05-19T09:25:09.514Z,52.12
2019-05-19T09:26:12.374Z,51.68
2019-05-19T09:27:15.517Z,50.07
2019-05-19T09:28:18.385Z,50.54
2019-05-19T09:29:20.870Z,52.04
2019-05-19T09:30:24.705Z,52.17
2019-05-19T09:31:27.100Z,51.14
2019-05-19T09:32:30.367Z,51.97
2019-05-19T09:33:32.678Z,50.54
2019-05-19T09:34:35.738Z,50.48
2019-05-19T09:35:38.979Z,51.48
2019-05-19T09:36:41.045Z,51.46
2019-05-19T09:37:43.972Z,53.45
2019-05-19T09:38:46.466Z,52.01
2019-05-19T09:39:48.757Z,51.30
2019-05-19T09:40:51.040Z,52.69
2019-05-19T09:41:53.712Z,52.90
2019-05-19T09:42:56.904Z,52.36
2019-05-19T09:43:59.909Z,53.32
2019-05-19T09:45:07.528Z,54.09
2019-05-19T09:46:09.820Z,53.48
2019-05-19T09:47:14.190Z,53.83
2019-05-19T09:48:16.857Z,54.12
2019-05-19T09:49:32.262Z,53.86
2019-05-19T09:50:34.798Z,53.39
2019-05-19T09:51:37.084Z,53.37
2019-05-19T09:52:41.981Z,52.99
2019-05-19T09:53:44.553Z,52.77
2019-05-19T09:54:47.249Z,51.88
2019-05-19T09:55:51.940Z,50.72
2019-05-19T09:56:56.083Z,51.10
2019-05-19T09:57:58.123Z,51.46
2019-05-19T09:59:01.173Z,52.65
2019-05-19T10:00:06.163Z,52.64
2019-05-19T10:01:09.163Z,52.86
2019-05-19T10:02:13.167Z,50.97
2019-05-19T10:03:15.595Z,52.79
2019-05-19T10:04:17.420Z,52.26
2019-05-19T10:05:19.997Z,52.27
2019-05-19T10:06:22.400Z,50.56
2019-05-19T10:07:26.305Z,49.90
2019-05-19T10:08:30.513Z,50.93
2019-05-19T10:10:02.701Z,52.12
2019-05-19T10:11:30.157Z,52.14
2019-05-19T10:12:34.133Z,52.64
2019-05-19T10:13:37.846Z,50.53
2019-05-19T10:14:40.916Z,52.94
2019-05-19T10:15:44.389Z,52.87
2019-05-19T10:16:47.369Z,52.50
2019-05-19T10:17:50.231Z,50.20
2019-05-19T10:18:52.902Z,51.22
2019-05-19T10:19:55.501Z,50.67
2019-05-19T10:20:59.257Z,52.57
2019-05-19T10:22:01.553Z,50.85
2019-05-19T10:23:05.617Z,50.69
2019-05-19T10:24:08.031Z,49.71
2019-05-19T10:25:21.587Z,50.45
2019-05-19T10:26:16.024Z,52.32
2019-05-19T10:27:21.627Z,50.39
2019-05-19T10:28:22.791Z,51.15
2019-05-19T10:29:25.222Z,51.25
2019-05-19T10:30:28.018Z,51.15
2019-05-19T10:31:30.732Z,52.36
2019-05-19T10:32:33.227Z,51.73
2019-05-19T10:33:36.103Z,52.89
2019-05-19T10:34:41.911Z,53.58
2019-05-19T10:35:44.919Z,53.91
2019-05-19T10:36:49.139Z,54.26
2019-05-19T10:37:51.697Z,52.88
2019-05-19T10:38:56.623Z,51.98
2019-05-19T10:40:00.271Z,52.00
2019-05-19T10:41:04.096Z,51.97
2019-05-19T10:42:07.181Z,51.77
2019-05-19T10:43:09.384Z,51.32
2019-05-19T10:44:12.742Z,51.42
2019-05-19T10:45:14.940Z,51.81
2019-05-19T10:46:19.906Z,50.09
2019-05-19T10:47:22.441Z,52.38
2019-05-19T10:48:24.905Z,52.41
2019-05-19T10:49:27.277Z,51.31
2019-05-19T10:50:29.988Z,51.57
2019-05-19T10:51:31.708Z,52.28
2019-05-19T10:52:35.719Z,51.87
2019-05-19T10:53:38.688Z,51.47
2019-05-19T10:54:41.593Z,53.02
2019-05-19T10:55:45.372Z,52.17
2019-05-19T10:56:48.117Z,52.87
2019-05-19T10:57:51.306Z,52.28
2019-05-19T10:58:54.088Z,52.36
2019-05-19T10:59:56.588Z,52.47
2019-05-19T11:01:00.104Z,52.00
2019-05-19T11:02:03.506Z,51.85
2019-05-19T11:03:09.100Z,50.68
2019-05-19T11:04:12.146Z,49.99
2019-05-19T11:05:15.101Z,51.53
2019-05-19T11:06:19.938Z,51.63
2019-05-19T11:07:23.412Z,51.46
2019-05-19T11:08:28.155Z,51.21
2019-05-19T11:09:31.272Z,50.57
2019-05-19T11:10:33.694Z,50.89
2019-05-19T11:11:36.092Z,50.58
2019-05-19T11:12:38.324Z,50.69
2019-05-19T11:13:42.323Z,49.98
2019-05-19T11:14:47.557Z,50.94
2019-05-19T11:15:52.344Z,50.82
2019-05-19T11:16:54.514Z,51.29
2019-05-19T11:17:58.923Z,51.07
2019-05-19T11:19:00.786Z,50.54
2019-05-19T11:20:05.862Z,50.97
2019-05-19T11:21:10.036Z,50.61
2019-05-19T11:22:12.817Z,50.38
2019-05-19T11:23:24.654Z,50.77
2019-05-19T11:24:27.190Z,49.66
2019-05-19T11:25:33.968Z,51.17
2019-05-19T11:26:34.132Z,51.04
2019-05-19T11:27:37.035Z,49.74
2019-05-19T11:28:41.276Z,50.87
2019-05-19T11:29:44.519Z,50.76
2019-05-19T11:30:47.883Z,49.89
2019-05-19T11:31:51.483Z,50.92
2019-05-19T11:32:53.810Z,50.15
2019-05-19T11:33:57.331Z,50.42
2019-05-19T11:35:00.702Z,50.97
2019-05-19T11:36:03.464Z,51.37
2019-05-19T11:37:07.473Z,50.34
2019-05-19T11:38:10.980Z,50.88
2019-05-19T11:39:14.041Z,51.24
2019-05-19T11:40:16.514Z,51.52
2019-05-19T11:41:20.180Z,50.99
2019-05-19T11:42:23.714Z,50.67
2019-05-19T11:43:27.609Z,50.41
2019-05-19T11:44:32.424Z,50.09
2019-05-19T11:45:35.083Z,49.81
2019-05-19T11:46:37.551Z,49.63
2019-05-19T11:47:42.008Z,49.91
2019-05-19T11:48:45.036Z,49.66
2019-05-19T11:49:47.730Z,49.49
2019-05-19T11:50:50.505Z,49.47
2019-05-19T11:51:53.701Z,49.46
2019-05-19T11:52:56.156Z,49.26
2019-05-19T11:53:58.468Z,49.58
2019-05-19T11:55:00.979Z,49.10
2019-05-19T11:56:06.594Z,48.96
2019-05-19T11:57:08.319Z,48.90
2019-05-19T11:58:10.402Z,49.17
2019-05-19T11:59:13.113Z,49.08
2019-05-19T12:00:17.347Z,49.06
2019-05-19T12:01:20.683Z,48.86
2019-05-19T12:02:23.154Z,48.93
2019-05-19T12:03:26.394Z,49.05
2019-05-19T12:04:30.290Z,48.90
2019-05-19T12:05:35.592Z,49.08
2019-05-19T12:06:39.987Z,48.86
2019-05-19T12:07:43.021Z,48.94
2019-05-19T12:08:45.393Z,48.68
2019-05-19T12:09:50.656Z,48.68
2019-05-19T12:10:53.421Z,48.75
2019-05-19T12:11:58.233Z,48.41
2019-05-19T12:13:01.154Z,48.68
2019-05-19T12:14:04.476Z,48.69
2019-05-19T12:15:08.601Z,48.59
2019-05-19T12:16:10.876Z,48.42
2019-05-19T12:17:13.821Z,48.46
2019-05-19T12:18:16.950Z,47.77
2019-05-19T12:19:19.885Z,48.72
2019-05-19T12:20:22.573Z,47.87
2019-05-19T12:21:25.609Z,48.33
2019-05-19T12:22:28.292Z,48.63
2019-05-19T12:23:31.358Z,48.42
2019-05-19T12:24:37.356Z,48.01
2019-05-19T12:25:40.449Z,48.22
2019-05-19T12:26:45.088Z,48.39
2019-05-19T12:27:49.297Z,48.78
2019-05-19T12:28:53.666Z,49.16
2019-05-19T12:29:56.847Z,49.26
2019-05-19T12:30:59.592Z,49.54
2019-05-19T12:32:02.381Z,48.64
2019-05-19T12:33:05.168Z,48.97
2019-05-19T12:34:07.897Z,49.71
2019-05-19T12:35:11.239Z,50.29
2019-05-19T12:36:14.554Z,50.24
2019-05-19T12:37:19.141Z,50.72
2019-05-19T12:38:22.148Z,50.57
2019-05-19T12:39:24.491Z,50.37
2019-05-19T12:40:26.881Z,50.29
2019-05-19T12:41:29.184Z,50.32
2019-05-19T12:42:32.323Z,50.63
2019-05-19T12:43:34.786Z,49.75
2019-05-19T12:44:37.065Z,50.68
2019-05-19T12:45:40.704Z,50.80
2019-05-19T12:46:43.513Z,50.62
2019-05-19T12:47:47.919Z,50.69
2019-05-19T12:48:51.208Z,50.45
2019-05-19T12:49:55.970Z,50.08
2019-05-19T12:50:58.906Z,49.67
2019-05-19T12:52:01.861Z,49.48
2019-05-19T12:53:05.176Z,48.37
2019-05-19T12:54:09.443Z,48.91
2019-05-19T12:55:11.920Z,48.73
2019-05-19T12:56:15.136Z,48.45
2019-05-19T12:57:16.849Z,48.34
2019-05-19T12:58:20.586Z,47.79
2019-05-19T12:59:23.208Z,48.27
2019-05-19T13:00:25.078Z,48.99
2019-05-19T13:01:32.769Z,49.13
2019-05-19T13:02:38.091Z,48.50
2019-05-19T13:03:42.439Z,48.26
2019-05-19T13:05:03.243Z,47.94
2019-05-19T13:05:49.982Z,48.45
2019-05-19T13:06:52.471Z,48.28
2019-05-19T13:07:56.898Z,47.77
2019-05-19T13:08:59.273Z,47.98
2019-05-19T13:10:01.414Z,47.47
2019-05-19T13:11:06.111Z,48.24
2019-05-19T13:12:08.509Z,46.98
2019-05-19T13:13:11.851Z,46.53
2019-05-19T13:14:15.025Z,47.02
2019-05-19T13:15:21.374Z,47.64
2019-05-19T13:16:24.237Z,48.40
2019-05-19T13:17:26.901Z,48.25
2019-05-19T13:18:29.281Z,48.44
2019-05-19T13:19:31.818Z,46.73
2019-05-19T13:20:34.812Z,47.83
2019-05-19T13:21:40.941Z,47.59
2019-05-19T13:22:45.574Z,47.71
2019-05-19T13:23:48.924Z,47.77
2019-05-19T13:24:51.203Z,47.26
2019-05-19T13:25:55.318Z,47.56
2019-05-19T13:26:57.514Z,47.52
2019-05-19T13:28:00.270Z,45.54
2019-05-19T13:29:03.444Z,45.41
2019-05-19T13:30:07.764Z,46.73
2019-05-19T13:31:10.022Z,45.51
2019-05-19T13:32:14.401Z,47.22
2019-05-19T13:33:17.237Z,47.21
2019-05-19T13:34:20.326Z,46.84